Time;durP1;ratioP1;P1;durP2;ratioP2;P2;SDS_P1;SDS_P2;PMS_P1;PMS_P2;Temp;Humidity;BMP_temperature;BMP_pressure;BME280_temperature;BME280_humidity;BME280_pressure;Samples;Min_cycle;Max_cycle;Signal;HPM_P1;HPM_P2
2021/10/26 00:00:12;;;;;;;24.60;18.97;;;;;;;10.78;99.84;101783.41;5114656;28;20024;-37
2021/10/26 00:02:38;;;;;;;29.10;20.85;;;;;;;10.67;100.00;101775.94;5115277;28;20016;-37
2021/10/26 00:05:05;;;;;;;28.98;19.88;;;;;;;10.78;100.00;101797.78;5115064;28;20038;-36
2021/10/26 00:07:30;;;;;;;29.05;20.33;;;;;;;10.75;100.00;101787.38;5114845;28;20478;-37
2021/10/26 00:09:56;;;;;;;33.93;21.37;;;;;;;10.76;100.00;101794.44;5114897;28;20032;-37
2021/10/26 00:12:21;;;;;;;25.73;19.30;;;;;;;10.75;100.00;101784.69;5114775;28;20027;-36
2021/10/26 00:14:48;;;;;;;26.00;18.93;;;;;;;10.76;100.00;101799.88;5114422;28;20288;-37
2021/10/26 00:17:14;;;;;;;28.30;20.05;;;;;;;10.77;100.00;101808.81;5115123;28;20026;-37
2021/10/26 00:19:39;;;;;;;28.50;20.73;;;;;;;10.71;100.00;101786.13;5114892;28;20039;-37
2021/10/26 00:22:05;;;;;;;25.27;20.70;;;;;;;10.77;100.00;101806.09;5114971;28;20040;-36
2021/10/26 00:24:30;;;;;;;34.83;21.77;;;;;;;10.80;100.00;101811.09;5114056;28;20027;-37
2021/10/26 00:26:55;;;;;;;31.47;22.20;;;;;;;10.79;100.00;101807.56;5114244;28;20023;-37
2021/10/26 00:29:21;;;;;;;28.77;21.00;;;;;;;10.81;100.00;101804.66;5114427;28;20024;-37
2021/10/26 00:31:46;;;;;;;28.20;21.60;;;;;;;10.81;100.00;101808.19;5114652;28;20340;-37
2021/10/26 00:34:12;;;;;;;27.50;20.63;;;;;;;10.83;100.00;101810.66;5114254;28;20019;-37
2021/10/26 00:36:38;;;;;;;32.67;22.43;;;;;;;10.83;100.00;101814.25;5114325;28;20027;-37
2021/10/26 00:39:04;;;;;;;34.85;22.38;;;;;;;10.81;100.00;101810.88;5114248;28;20619;-36
2021/10/26 00:41:29;;;;;;;;;;;;;;;10.86;100.00;101804.84;5114470;28;20433;-37
2021/10/26 00:43:55;;;;;;;27.00;22.27;;;;;;;10.82;100.00;101811.72;5114401;28;19912;-37
2021/10/26 00:46:27;;;;;;;33.40;22.43;;;;;;;10.75;100.00;101791.97;5113570;28;20763;-37
2021/10/26 00:48:53;;;;;;;32.05;22.70;;;;;;;10.72;100.00;101793.19;5113684;28;20024;-37
2021/10/26 00:51:18;;;;;;;31.25;22.95;;;;;;;10.78;100.00;101808.63;5114176;28;20126;-37
2021/10/26 00:53:43;;;;;;;31.43;21.70;;;;;;;10.77;100.00;101806.09;5114067;28;20020;-37
2021/10/26 00:56:09;;;;;;;32.17;22.80;;;;;;;10.73;100.00;101812.97;5114050;28;20019;-36
2021/10/26 00:58:34;;;;;;;33.78;22.65;;;;;;;10.76;100.00;101823.38;5114498;28;20310;-37
2021/10/26 01:00:59;;;;;;;31.70;23.47;;;;;;;10.78;100.00;101837.53;5113613;28;20126;-37
2021/10/26 01:03:25;;;;;;;32.83;23.03;;;;;;;10.78;100.00;101827.56;5114232;28;20547;-37
2021/10/26 01:05:50;;;;;;;36.50;23.60;;;;;;;10.78;100.00;101824.84;5113502;28;20069;-37
2021/10/26 01:08:16;;;;;;;33.85;23.80;;;;;;;10.75;100.00;101819.03;5113712;28;20111;-37
2021/10/26 01:10:42;;;;;;;34.43;23.03;;;;;;;10.78;100.00;101834.81;5113803;28;20023;-37
2021/10/26 01:13:07;;;;;;;35.10;23.35;;;;;;;10.77;100.00;101833.16;5113782;28;20483;-36
2021/10/26 01:15:33;;;;;;;32.23;23.23;;;;;;;10.70;100.00;101826.94;5113964;28;20023;-36
2021/10/26 01:17:58;;;;;;;29.63;23.55;;;;;;;10.79;100.00;101839.22;5114467;28;20034;-37
2021/10/26 01:20:24;;;;;;;29.97;21.57;;;;;;;10.77;100.00;101844.81;5113828;28;20023;-37
2021/10/26 01:22:49;;;;;;;30.27;22.08;;;;;;;10.80;100.00;101848.97;5114158;28;20023;-36
2021/10/26 01:25:15;;;;;;;32.27;23.10;;;;;;;10.71;100.00;101828.59;5113774;28;20026;-37
2021/10/26 01:27:47;;;;;;;30.55;23.10;;;;;;;10.83;100.00;101851.25;5114380;28;20016;-37
2021/10/26 01:30:14;;;;;;;31.13;21.50;;;;;;;10.82;100.00;101842.31;5113836;28;20031;-36
2021/10/26 01:32:40;;;;;;;31.58;23.17;;;;;;;10.82;100.00;101841.47;5113566;28;20027;-37
2021/10/26 01:35:06;;;;;;;33.60;23.02;;;;;;;10.76;100.00;101835.03;5113537;28;20024;-37
2021/10/26 01:37:32;;;;;;;32.40;23.33;;;;;;;10.80;100.00;101844.41;5113712;28;20344;-37
2021/10/26 01:39:58;;;;;;;32.42;23.63;;;;;;;10.80;100.00;101836.28;5113504;28;20031;-37
2021/10/26 01:42:24;;;;;;;31.88;24.02;;;;;;;10.80;100.00;101838.16;5114222;28;20422;-37
2021/10/26 01:44:50;;;;;;;35.20;23.27;;;;;;;10.80;100.00;101835.47;5113726;28;20103;-36
2021/10/26 01:47:15;;;;;;;35.17;24.47;;;;;;;10.68;100.00;101820.88;5113383;28;20038;-36
2021/10/26 01:49:40;;;;;;;33.60;23.77;;;;;;;10.74;100.00;101836.28;5113564;28;20262;-37
2021/10/26 01:52:06;;;;;;;36.07;25.00;;;;;;;10.75;100.00;101840.66;5113312;28;20390;-37
2021/10/26 01:54:36;;;;;;;38.53;23.53;;;;;;;10.73;100.00;101838.13;5113307;28;20258;-36
2021/10/26 01:57:06;;;;;;;34.75;24.50;;;;;;;10.63;100.00;101826.06;5115677;28;20028;-37
2021/10/26 01:59:32;;;;;;;30.02;22.00;;;;;;;10.68;100.00;101843.34;5117270;28;20028;-36
2021/10/26 02:01:58;;;;;;;37.10;22.95;;;;;;;10.58;100.00;101827.53;5117549;28;20077;-37
2021/10/26 02:04:24;;;;;;;28.00;21.77;;;;;;;10.54;100.00;101820.88;5117611;28;20011;-36
2021/10/26 02:06:50;;;;;;;35.53;23.38;;;;;;;10.64;100.00;101849.38;5116754;28;20045;-37
2021/10/26 02:09:15;;;;;;;32.35;22.05;;;;;;;10.53;100.00;101824.59;5098712;28;20044;-36
2021/10/26 02:11:40;;;;;;;35.43;23.23;;;;;;;10.62;100.00;101848.75;5117897;28;20360;-36
2021/10/26 02:14:06;;;;;;;28.80;22.53;;;;;;;10.65;100.00;101848.34;5116727;28;20058;-36
2021/10/26 02:16:32;;;;;;;37.65;23.55;;;;;;;10.62;100.00;101844.19;5117715;28;20026;-37
2021/10/26 02:18:57;;;;;;;30.95;21.42;;;;;;;10.63;100.00;101839.59;5116942;28;20024;-36
2021/10/26 02:21:22;;;;;;;37.07;23.93;;;;;;;10.54;100.00;101820.03;5117740;28;20039;-36
2021/10/26 02:23:48;;;;;;;32.93;22.43;;;;;;;10.63;100.00;101832.31;5097605;28;20804;-37
2021/10/26 02:26:14;;;;;;;31.50;20.57;;;;;;;10.60;100.00;101843.56;5116979;28;20027;-37
2021/10/26 02:28:39;;;;;;;31.52;22.88;;;;;;;10.60;100.00;101840.03;5116718;28;20011;-37
2021/10/26 02:31:05;;;;;;;34.20;24.05;;;;;;;10.60;100.00;101848.97;5116973;28;20024;-37
2021/10/26 02:33:30;;;;;;;32.95;21.92;;;;;;;10.42;100.00;101821.69;5116383;28;20456;-36
2021/10/26 02:35:55;;;;;;;33.93;22.90;;;;;;;10.52;100.00;101851.88;5117354;28;20031;-37
2021/10/26 02:38:21;;;;;;;30.63;22.67;;;;;;;10.60;100.00;101853.56;5116878;28;20023;-37
2021/10/26 02:40:46;;;;;;;33.40;22.80;;;;;;;10.58;100.00;101853.75;5116244;28;20026;-37
2021/10/26 02:43:12;;;;;;;34.53;23.03;;;;;;;10.54;100.00;101856.03;5116744;28;20024;-37
2021/10/26 02:45:38;;;;;;;30.87;22.13;;;;;;;10.54;100.00;101857.88;5116374;28;20366;-36
2021/10/26 02:48:03;;;;;;;34.97;22.88;;;;;;;10.54;100.00;101857.88;5116731;28;20394;-37
2021/10/26 02:50:29;;;;;;;35.30;22.70;;;;;;;10.54;100.00;101856.03;5116591;28;20107;-37
2021/10/26 02:52:54;;;;;;;32.30;23.85;;;;;;;10.52;100.00;101863.53;5116952;28;20405;-37
2021/10/26 02:55:20;;;;;;;33.03;22.97;;;;;;;10.55;100.00;101863.13;5116575;28;20443;-37
2021/10/26 02:57:46;;;;;;;32.90;22.30;;;;;;;10.55;100.00;101863.13;5116332;28;20020;-37
2021/10/26 03:00:12;;;;;;;36.00;23.30;;;;;;;10.47;100.00;101843.53;5116451;28;20593;-37
2021/10/26 03:02:41;;;;;;;35.92;25.05;;;;;;;10.43;100.00;101853.09;5117184;28;20077;-37
2021/10/26 03:05:07;;;;;;;36.28;24.40;;;;;;;10.44;100.00;101850.22;5115968;28;20028;-37
2021/10/26 03:07:42;;;;;;;;;;;;;;;10.59;100.00;101863.53;5115569;28;20016;-36
2021/10/26 03:10:09;;;;;;;35.40;23.85;;;;;;;10.51;100.00;101864.56;5115895;28;19910;-36
2021/10/26 03:12:35;;;;;;;34.00;24.40;;;;;;;10.51;100.00;101866.44;5116186;28;20414;-37
2021/10/26 03:15:01;;;;;;;38.10;24.33;;;;;;;10.49;100.00;101872.06;5116240;28;20024;-37
2021/10/26 03:17:26;;;;;;;35.30;25.48;;;;;;;10.52;100.00;101871.63;5115917;28;20027;-37
2021/10/26 03:19:52;;;;;;;38.10;26.05;;;;;;;10.48;100.00;101861.44;5115876;28;20030;-36
2021/10/26 03:22:18;;;;;;;36.58;26.05;;;;;;;10.44;100.00;101854.75;5116186;28;20169;-37
2021/10/26 03:24:43;;;;;;;37.45;25.63;;;;;;;10.50;100.00;101873.72;5115659;28;20032;-37
2021/10/26 03:27:09;;;;;;;37.43;27.63;;;;;;;10.47;100.00;101866.00;5115692;28;20519;-37
2021/10/26 03:29:34;;;;;;;43.83;27.60;;;;;;;10.37;100.00;101845.81;5115229;28;20023;-37
2021/10/26 03:32:00;;;;;;;36.63;26.25;;;;;;;10.40;100.00;101853.53;5115895;28;20497;-37
2021/10/26 03:34:25;;;;;;;43.40;26.83;;;;;;;10.46;100.00;101864.34;5115844;28;20023;-37
2021/10/26 03:36:50;;;;;;;40.97;28.10;;;;;;;10.44;100.00;101866.44;5115669;28;20019;-36
2021/10/26 03:39:16;;;;;;;40.20;26.60;;;;;;;10.45;100.00;101869.97;5115398;28;20516;-37
2021/10/26 03:41:42;;;;;;;36.57;26.80;;;;;;;10.43;100.00;101864.75;5115601;28;20026;-36
2021/10/26 03:44:07;;;;;;;41.28;28.00;;;;;;;10.45;100.00;101870.81;5115521;28;20020;-37
2021/10/26 03:46:34;;;;;;;46.40;30.07;;;;;;;10.44;100.00;101874.56;5115011;28;20023;-37
2021/10/26 03:48:59;;;;;;;38.72;28.23;;;;;;;10.36;100.00;101858.50;5115132;28;20035;-36
2021/10/26 03:51:24;;;;;;;45.07;28.63;;;;;;;10.47;100.00;101873.28;5115515;28;20028;-37
2021/10/26 03:53:50;;;;;;;45.13;30.53;;;;;;;10.43;100.00;101864.75;5115045;28;20024;-37
2021/10/26 03:56:15;;;;;;;41.20;28.90;;;;;;;10.45;100.00;101873.50;5115552;28;20059;-37
2021/10/26 03:58:42;;;;;;;41.50;28.87;;;;;;;10.47;100.00;101876.00;5115049;28;20375;-37
2021/10/26 04:01:07;;;;;;;47.40;29.42;;;;;;;10.39;100.00;101868.06;5115461;28;20045;-36
2021/10/26 04:03:34;;;;;;;46.17;31.33;;;;;;;10.43;100.00;101874.72;5115641;28;20023;-37
2021/10/26 04:06:05;;;;;;;45.95;31.50;;;;;;;10.44;100.00;101869.13;5115044;28;20023;-37
2021/10/26 04:08:49;;;;;;;49.63;32.38;;;;;;;10.40;100.00;101867.88;5115541;28;20030;-37
2021/10/26 04:11:19;;;;;;;51.92;32.30;;;;;;;10.43;100.00;101872.03;5115021;28;20049;-37
2021/10/26 04:13:45;;;;;;;46.78;32.22;;;;;;;10.21;100.00;101847.84;5114995;28;20027;-37
2021/10/26 04:16:10;;;;;;;41.42;31.45;;;;;;;10.40;100.00;101869.75;5114456;28;20050;-37
2021/10/26 04:18:36;;;;;;;46.03;31.48;;;;;;;10.40;100.00;101872.47;5114540;28;20483;-37
2021/10/26 04:21:02;;;;;;;50.72;33.53;;;;;;;10.32;100.00;101862.66;5115203;28;20035;-37
2021/10/26 04:23:28;;;;;;;47.85;33.72;;;;;;;10.29;100.00;101863.88;5115309;28;20023;-37
2021/10/26 04:25:54;;;;;;;51.50;33.83;;;;;;;10.35;100.00;101881.19;5095968;28;20092;-36
2021/10/26 04:28:19;;;;;;;50.63;34.70;;;;;;;10.35;100.00;101886.59;5115001;28;20026;-36
2021/10/26 04:30:45;;;;;;;52.87;34.43;;;;;;;10.35;100.00;101889.28;5114436;28;20467;-37
2021/10/26 04:33:11;;;;;;;48.63;34.47;;;;;;;10.35;100.00;101894.69;5114560;28;20015;-36
2021/10/26 04:35:37;;;;;;;;;;;;;;;10.41;100.00;101898.44;5114739;28;20060;-37
2021/10/26 04:38:03;;;;;;;45.58;31.17;;;;;;;10.36;100.00;101896.34;5114330;28;20000;-37
2021/10/26 04:40:29;;;;;;;43.42;32.13;;;;;;;10.30;100.00;101895.31;5114290;28;20016;-37
2021/10/26 04:42:54;;;;;;;57.08;35.10;;;;;;;10.36;100.00;101912.59;5114555;28;20020;-37
2021/10/26 04:45:22;;;;;;;50.90;35.33;;;;;;;10.36;100.00;101904.47;5114114;28;20028;-36
2021/10/26 04:47:47;;;;;;;48.00;33.88;;;;;;;10.28;100.00;101888.41;5114614;28;20027;-36
2021/10/26 04:50:14;;;;;;;52.28;35.95;;;;;;;10.32;100.00;101904.03;5114341;28;20042;-37
2021/10/26 04:52:39;;;;;;;52.40;35.83;;;;;;;10.31;100.00;101909.66;5114090;28;20455;-37
2021/10/26 04:55:05;;;;;;;53.33;36.45;;;;;;;10.32;100.00;101908.59;5114006;28;20034;-37
2021/10/26 04:57:31;;;;;;;52.40;35.65;;;;;;;10.30;100.00;101908.81;5114290;28;20106;-37
2021/10/26 04:59:56;;;;;;;51.47;35.10;;;;;;;10.30;100.00;101902.59;5113753;28;20085;-36
2021/10/26 05:02:22;;;;;;;53.30;36.55;;;;;;;10.28;100.00;101905.47;5113902;28;20031;-36
2021/10/26 05:04:47;;;;;;;52.65;36.25;;;;;;;10.27;100.00;101902.97;5114186;28;20062;-37
2021/10/26 05:07:14;;;;;;;55.17;36.10;;;;;;;10.23;100.00;101897.09;5113602;28;20477;-37
2021/10/26 05:09:39;;;;;;;;;;;;;;;10.31;100.00;101906.94;5114448;28;20019;-37
2021/10/26 05:12:05;;;;;;;55.10;35.95;;;;;;;10.08;100.00;101888.31;5114439;28;19903;-37
2021/10/26 05:14:30;;;;;;;57.58;36.33;;;;;;;10.21;100.00;101910.00;5114120;28;20019;-37
2021/10/26 05:16:56;;;;;;;58.10;37.07;;;;;;;10.21;100.00;101912.72;5114435;28;20114;-36
2021/10/26 05:19:24;;;;;;;56.67;35.88;;;;;;;10.22;100.00;101916.25;5114070;28;20420;-36
2021/10/26 05:21:49;;;;;;;53.22;35.65;;;;;;;10.18;100.00;101923.09;5114050;28;20081;-36
2021/10/26 05:24:15;;;;;;;53.67;34.37;;;;;;;10.18;100.00;101920.38;5113572;28;20177;-37
2021/10/26 05:26:40;;;;;;;55.42;36.67;;;;;;;10.16;100.00;101928.69;5113955;28;20015;-36
2021/10/26 05:29:09;;;;;;;56.08;35.70;;;;;;;10.18;100.00;101923.91;5114088;28;20440;-37
2021/10/26 05:31:35;;;;;;;61.13;36.83;;;;;;;10.16;100.00;101925.16;5116710;28;20444;-37
2021/10/26 05:34:01;;;;;;;;;;;;;;;10.21;100.00;101926.22;5120636;28;20158;-36
2021/10/26 05:36:26;;;;;;;60.65;35.10;;;;;;;10.15;100.00;101924.34;5120777;28;19958;-37
2021/10/26 05:38:52;;;;;;;59.77;35.50;;;;;;;10.12;100.00;101921.19;5120483;28;20027;-37
2021/10/26 05:41:18;;;;;;;58.97;36.78;;;;;;;10.12;100.00;101934.72;5120409;28;20084;-37
2021/10/26 05:43:43;;;;;;;58.25;35.70;;;;;;;10.11;100.00;101931.19;5120248;28;20058;-38
2021/10/26 05:46:09;;;;;;;63.93;35.47;;;;;;;10.14;100.00;101924.53;5120512;28;20385;-37
2021/10/26 05:48:34;;;;;;;56.87;35.47;;;;;;;9.96;100.00;101898.91;5120184;28;20055;-37
2021/10/26 05:51:04;;;;;;;58.35;36.28;;;;;;;10.14;100.00;101935.31;5120570;28;20107;-37
2021/10/26 05:53:30;;;;;;;51.88;33.00;;;;;;;10.14;100.00;101938.03;5120861;28;20039;-36
2021/10/26 05:55:56;;;;;;;59.90;33.42;;;;;;;10.13;100.00;101939.91;5120155;28;20035;-36
2021/10/26 05:58:21;;;;;;;55.53;34.87;;;;;;;10.10;100.00;101947.56;5120989;28;20084;-37
2021/10/26 06:00:46;;;;;;;52.53;34.67;;;;;;;10.16;100.00;101966.53;5120487;28;20353;-36
2021/10/26 06:03:12;;;;;;;50.17;35.23;;;;;;;10.11;100.00;101962.78;5120515;28;20043;-36
2021/10/26 06:05:38;;;;;;;57.10;35.07;;;;;;;10.11;100.00;101966.31;5120201;28;20062;-37
2021/10/26 06:08:06;;;;;;;57.95;33.83;;;;;;;10.09;100.00;101970.22;5119945;28;20023;-37
2021/10/26 06:10:32;;;;;;;57.95;35.78;;;;;;;10.07;100.00;101973.97;5120134;28;20345;-36
2021/10/26 06:13:03;;;;;;;53.67;33.78;;;;;;;10.07;100.00;101973.16;5119585;28;20024;-36
2021/10/26 06:15:29;;;;;;;50.95;33.10;;;;;;;10.05;100.00;101980.59;5120478;28;20040;-36
2021/10/26 06:17:54;;;;;;;59.77;34.10;;;;;;;10.04;100.00;101985.19;5120684;28;20055;-36
2021/10/26 06:20:20;;;;;;;49.93;34.03;;;;;;;10.03;100.00;101983.50;5119428;28;20020;-36
2021/10/26 06:22:45;;;;;;;51.83;34.08;;;;;;;9.96;100.00;101971.84;5120364;28;20027;-37
2021/10/26 06:25:11;;;;;;;53.17;33.17;;;;;;;9.99;100.00;101984.94;5119721;28;20370;-37
2021/10/26 06:27:37;;;;;;;53.50;34.97;;;;;;;10.00;100.00;101989.34;5120016;28;20463;-37
2021/10/26 06:30:03;;;;;;;53.00;35.83;;;;;;;9.92;100.00;101981.38;5101214;28;20071;-36
2021/10/26 06:32:28;;;;;;;58.83;35.38;;;;;;;10.00;100.00;101992.03;5102134;28;20019;-36
2021/10/26 06:34:53;;;;;;;64.90;35.47;;;;;;;9.99;100.00;101984.13;5120266;28;20028;-36
2021/10/26 06:37:19;;;;;;;46.80;32.77;;;;;;;9.99;100.00;101987.66;5119848;28;20250;-36
2021/10/26 06:39:45;;;;;;;54.88;33.40;;;;;;;9.95;100.00;101974.72;5119814;28;20028;-36
2021/10/26 06:42:10;;;;;;;51.08;33.33;;;;;;;9.87;100.00;101973.03;5119023;28;20423;-37
2021/10/26 06:44:36;;;;;;;54.53;33.93;;;;;;;9.95;100.00;101982.84;5116491;28;20020;-37
2021/10/26 06:47:01;;;;;;;58.73;35.13;;;;;;;9.89;100.00;101970.97;5116994;28;20016;-36
2021/10/26 06:49:27;;;;;;;54.03;34.43;;;;;;;9.91;100.00;101979.72;5116195;28;20024;-36
2021/10/26 06:51:53;;;;;;;56.72;35.85;;;;;;;9.83;100.00;101969.06;5116884;28;20015;-37
2021/10/26 06:54:19;;;;;;;;;;;;;;;9.96;100.00;101985.34;5117112;28;20084;-37
2021/10/26 06:56:44;;;;;;;57.53;34.37;;;;;;;9.91;100.00;101989.69;5116063;28;19904;-37
2021/10/26 06:59:09;;;;;;;63.10;35.50;;;;;;;9.89;100.00;101995.28;5116980;28;20019;-37
2021/10/26 07:01:35;;;;;;;59.30;35.33;;;;;;;9.90;100.00;102004.22;5116562;28;20066;-36
2021/10/26 07:04:00;;;;;;;55.23;34.03;;;;;;;9.84;100.00;101994.22;5116145;28;20349;-36
2021/10/26 07:06:26;;;;;;;58.38;34.70;;;;;;;9.89;100.00;102003.38;5116373;28;20466;-36
2021/10/26 07:08:51;;;;;;;54.50;34.23;;;;;;;9.85;100.00;102002.09;5116061;28;20175;-36
2021/10/26 07:11:17;;;;;;;56.87;34.50;;;;;;;9.87;100.00;102007.34;5116533;28;20246;-36
2021/10/26 07:13:43;;;;;;;52.38;33.90;;;;;;;9.85;100.00;102007.50;5115927;28;20050;-37
2021/10/26 07:16:08;;;;;;;48.73;33.47;;;;;;;9.88;100.00;102009.81;5116477;28;20433;-37
2021/10/26 07:18:35;;;;;;;49.03;32.73;;;;;;;9.90;100.00;102015.03;5116133;28;20094;-36
2021/10/26 07:21:00;;;;;;;;;;;;;;;9.98;100.00;102015.72;5116754;28;20039;-37
2021/10/26 07:23:25;;;;;;;45.95;29.10;;;;;;;9.79;100.00;101992.09;5116036;28;20010;-36
2021/10/26 07:25:52;;;;;;;42.77;27.53;;;;;;;9.79;100.00;102002.91;5115821;28;20035;-36
2021/10/26 07:28:18;;;;;;;50.83;30.92;;;;;;;9.92;100.00;102040.81;5115582;28;20257;-37
2021/10/26 07:30:45;;;;;;;;;;;;;;;9.98;100.00;102040.03;5115708;28;20037;-37
2021/10/26 07:33:24;;;;;;;44.08;25.98;;;;;;;9.95;100.00;102044.97;5115510;28;19978;-36
2021/10/26 07:35:52;;;;;;;45.35;26.10;;;;;;;9.81;100.00;102033.28;5115601;28;20119;-37
2021/10/26 07:38:33;;;;;;;37.78;25.08;;;;;;;9.90;100.00;102048.28;5115539;28;20023;-36
2021/10/26 07:40:59;;;;;;;37.95;22.95;;;;;;;9.94;100.00;102057.66;5115099;28;20055;-37
2021/10/26 07:43:25;;;;;;;35.17;22.13;;;;;;;9.96;100.00;102047.50;5115475;28;20055;-36
2021/10/26 07:45:51;;;;;;;39.38;23.77;;;;;;;9.93;100.00;102041.66;5114991;28;20024;-37
2021/10/26 07:48:16;;;;;;;35.83;23.10;;;;;;;9.88;100.00;102038.72;5114991;28;20023;-36
2021/10/26 07:50:43;;;;;;;33.70;21.77;;;;;;;9.89;100.00;102043.91;5115135;28;20107;-37
2021/10/26 07:53:08;;;;;;;;;;;;;;;10.06;100.00;102058.81;5097400;28;20352;-37
2021/10/26 07:55:34;;;;;;;33.08;20.20;;;;;;;10.01;100.00;102053.16;5114817;28;19904;-36
2021/10/26 07:57:59;;;;;;;32.08;20.92;;;;;;;10.07;100.00;102059.63;5115757;28;20235;-37
2021/10/26 08:00:25;;;;;;;33.07;20.13;;;;;;;10.09;100.00;102051.31;5115005;28;20051;-37
2021/10/26 08:02:50;;;;;;;29.73;19.90;;;;;;;10.13;100.00;102058.00;5114971;28;20015;-37
2021/10/26 08:05:17;;;;;;;34.42;20.65;;;;;;;10.21;100.00;102060.56;5114800;28;20072;-36
2021/10/26 08:07:42;;;;;;;30.35;18.75;;;;;;;10.24;100.00;102054.75;5115254;28;20515;-37
2021/10/26 08:10:08;;;;;;;31.43;19.63;;;;;;;10.26;100.00;102047.31;5114728;28;20020;-37
2021/10/26 08:12:34;;;;;;;29.63;19.88;;;;;;;10.30;100.00;102051.28;5115657;28;20015;-37
2021/10/26 08:14:59;;;;;;;28.73;19.53;;;;;;;10.34;100.00;102054.41;5114816;28;20027;-37
2021/10/26 08:17:24;;;;;;;29.60;19.13;;;;;;;10.30;100.00;102038.59;5115582;28;20285;-36
2021/10/26 08:19:50;;;;;;;34.03;20.10;;;;;;;10.41;100.00;102050.72;5096530;28;20027;-37
2021/10/26 08:22:18;;;;;;;29.43;18.93;;;;;;;10.43;100.00;102053.19;5114675;28;20166;-37
2021/10/26 08:24:45;;;;;;;29.05;18.85;;;;;;;10.47;99.77;102057.19;5114596;28;20308;-37
2021/10/26 08:27:15;;;;;;;28.55;18.88;;;;;;;10.40;99.64;102045.50;5095482;28;20112;-36
2021/10/26 08:34:44;;;;;;;28.08;19.15;;;;;;;10.38;99.95;102051.09;5114418;28;20039;-36
2021/10/26 08:37:12;;;;;;;30.75;19.20;;;;;;;10.47;100.00;102063.41;5114866;28;20030;-36
2021/10/26 08:39:38;;;;;;;31.70;19.27;;;;;;;10.45;100.00;102057.38;5114231;28;20106;-37
2021/10/26 08:42:05;;;;;;;;;;;;;;;10.57;100.00;102061.19;5115219;28;20059;-36
2021/10/26 08:44:31;;;;;;;29.70;17.60;;;;;;;10.55;100.00;102063.25;5114487;28;20244;-37
2021/10/26 08:46:57;;;;;;;;;;;;;;;10.63;100.00;102070.34;5115338;28;20095;-36
2021/10/26 08:49:23;;;;;;;25.95;17.88;;;;;;;10.55;99.77;102057.84;5113883;28;19908;-37
2021/10/26 08:51:52;;;;;;;28.70;17.70;;;;;;;10.54;99.55;102061.59;5114964;28;20038;-36
2021/10/26 08:54:17;;;;;;;28.35;17.27;;;;;;;10.56;99.56;102064.94;5114086;28;20266;-36
2021/10/26 08:56:43;;;;;;;31.63;17.85;;;;;;;10.50;99.60;102049.50;5114569;28;20470;-36
2021/10/26 08:59:08;;;;;;;28.73;16.48;;;;;;;10.68;100.00;102072.44;5113903;28;20022;-37
2021/10/26 09:01:34;;;;;;;30.13;17.80;;;;;;;10.61;99.63;102058.91;5114785;28;20027;-37
2021/10/26 09:04:09;;;;;;;28.20;18.58;;;;;;;10.67;99.26;102049.97;5114220;28;20022;-36
2021/10/26 09:06:51;;;;;;;31.77;18.08;;;;;;;10.69;98.91;102058.75;5113679;28;20023;-36
2021/10/26 09:09:21;;;;;;;30.17;17.15;;;;;;;10.48;98.78;102018.28;5113956;28;20028;-37
2021/10/26 09:17:26;;;;;;;29.30;16.77;;;;;;;10.73;98.68;102059.16;5114234;28;20026;-36
2021/10/26 09:19:56;;;;;;;28.95;17.42;;;;;;;10.77;98.61;102060.44;5113319;28;20043;-36
2021/10/26 09:22:23;;;;;;;29.13;18.20;;;;;;;10.81;98.73;102050.88;5114177;28;20040;-37
2021/10/26 09:25:01;;;;;;;28.15;18.88;;;;;;;10.89;98.09;102061.53;5113262;28;20449;-37
2021/10/26 09:27:27;;;;;;;23.48;17.20;;;;;;;10.81;98.35;102034.63;5113940;28;20038;-36
2021/10/26 09:29:58;;;;;;;;;;;;;;;11.08;98.61;102057.22;5113683;28;20020;-36
2021/10/26 09:32:36;;;;;;;25.25;17.60;;;;;;;11.09;97.28;102059.69;5113630;28;19903;-37
2021/10/26 09:35:07;;;;;;;28.88;19.05;;;;;;;11.11;97.44;102067.59;5113605;28;20016;-36
2021/10/26 09:37:43;;;;;;;25.60;17.67;;;;;;;11.09;96.88;102070.53;5114152;28;20028;-37
2021/10/26 09:40:09;;;;;;;27.33;18.38;;;;;;;11.09;96.79;102065.13;5113545;28;20020;-37
2021/10/26 09:42:38;;;;;;;;;;;;;;;11.20;97.10;102066.38;5114373;28;20050;-37
2021/10/26 09:45:04;;;;;;;32.45;18.92;;;;;;;11.18;97.16;102063.06;5113299;28;19908;-37
2021/10/26 09:47:34;;;;;;;;;;;;;;;11.27;96.95;102051.00;5113534;28;20016;-37
2021/10/26 09:50:02;;;;;;;27.08;18.23;;;;;;;11.29;96.77;102065.16;5095017;28;19904;-37
2021/10/26 09:52:43;;;;;;;30.17;20.40;;;;;;;11.32;96.68;102058.47;5114118;28;20107;-37
2021/10/26 09:55:22;;;;;;;31.75;18.42;;;;;;;11.40;96.81;102057.44;5113517;28;20035;-37
2021/10/26 09:57:56;;;;;;;29.08;19.63;;;;;;;11.42;96.28;102056.22;5113021;28;20051;-37
2021/10/26 10:00:29;;;;;;;30.10;20.20;;;;;;;11.41;96.32;102049.09;5113561;28;20058;-37
2021/10/26 10:03:23;;;;;;;28.75;19.40;;;;;;;11.53;96.73;102069.13;5113237;28;20508;-37
2021/10/26 10:05:53;;;;;;;28.77;19.15;;;;;;;11.61;96.50;102070.78;5113097;28;20102;-36
2021/10/26 10:08:28;;;;;;;36.65;20.13;;;;;;;11.64;96.19;102059.53;5113475;28;20054;-36
2021/10/26 10:11:20;;;;;;;30.75;19.65;;;;;;;11.69;96.10;102069.75;5113118;28;20035;-37
2021/10/26 10:13:54;;;;;;;26.42;18.17;;;;;;;11.75;95.54;102063.50;5113882;28;20069;-37
2021/10/26 10:16:25;;;;;;;30.10;19.05;;;;;;;11.83;95.59;102066.03;5113171;28;20102;-37
2021/10/26 10:18:52;;;;;;;29.95;18.83;;;;;;;11.78;95.06;102046.84;5116346;28;20475;-37
2021/10/26 10:21:29;;;;;;;29.80;19.42;;;;;;;11.82;95.33;102046.25;5117046;28;20035;-37
2021/10/26 10:23:58;;;;;;;26.58;18.45;;;;;;;11.96;94.96;102051.66;5116746;28;20031;-37
2021/10/26 10:26:26;;;;;;;27.45;17.63;;;;;;;11.99;94.60;102062.88;5116852;28;20097;-37
2021/10/26 10:28:52;;;;;;;29.63;17.92;;;;;;;12.02;94.27;102054.34;5117083;28;20020;-37
2021/10/26 10:31:20;;;;;;;26.30;18.65;;;;;;;12.10;94.43;102056.84;5116717;28;20029;-37
2021/10/26 10:33:49;;;;;;;28.98;18.52;;;;;;;12.16;93.76;102059.75;5116802;28;20023;-37
2021/10/26 10:36:22;;;;;;;28.95;17.55;;;;;;;12.09;93.97;102040.75;5116711;28;20023;-36
2021/10/26 10:38:48;;;;;;;25.40;18.02;;;;;;;12.07;93.71;102043.69;5116382;28;20485;-37
2021/10/26 10:41:26;;;;;;;31.42;17.60;;;;;;;12.20;93.78;102066.38;5116750;28;20359;-37
2021/10/26 10:43:53;;;;;;;27.85;16.10;;;;;;;12.17;93.69;102054.09;5116594;28;20019;-37
2021/10/26 10:46:39;;;;;;;28.23;17.05;;;;;;;12.28;94.51;102055.31;5116444;28;20046;-37
2021/10/26 10:49:36;;;;;;;31.13;17.35;;;;;;;12.40;94.62;102048.22;5116987;28;20091;-37
2021/10/26 10:52:12;;;;;;;25.35;15.27;;;;;;;12.54;93.51;102047.13;5013925;28;20061;-37
2021/10/26 10:55:12;;;;;;;27.88;16.45;;;;;;;12.52;92.97;102032.09;5014418;28;20058;-36
2021/10/26 10:57:36;;;;;;;26.00;14.65;;;;;;;12.58;92.58;102025.78;5012061;28;20507;-37
2021/10/26 11:00:22;;;;;;;24.35;13.82;;;;;;;12.63;91.88;102031.41;5014053;28;20030;-37
2021/10/26 11:02:49;;;;;;;24.75;14.07;;;;;;;12.68;92.28;102031.59;5013965;28;20052;-37
2021/10/26 11:05:35;;;;;;;22.08;13.27;;;;;;;12.71;91.75;102027.63;5013243;28;20021;-37
2021/10/26 11:08:07;;;;;;;21.58;12.15;;;;;;;12.85;91.60;102034.66;5013651;28;20059;-37
2021/10/26 11:10:51;;;;;;;22.70;11.27;;;;;;;13.07;90.88;102024.28;5013831;28;20038;-37
2021/10/26 11:13:36;;;;;;;24.05;12.13;;;;;;;13.16;91.58;101995.81;5013585;28;20025;-37
2021/10/26 11:16:06;;;;;;;21.38;10.80;;;;;;;13.35;88.75;102015.75;5013872;28;20343;-37
2021/10/26 11:18:35;;;;;;;21.50;10.13;;;;;;;13.51;87.39;102020.63;5013458;28;20510;-37
2021/10/26 11:21:05;;;;;;;19.33;9.45;;;;;;;13.48;87.40;102020.25;5013173;28;20490;-37